Погода Нсаньена неделю

Северо-Апская Провинция, Малави

24 - 30 июля
  • 24июля
    Сегодня
    +17°
    +32°
    Ясно и безоблачно
    ВремяПогодаТемператураВлажностьДавлениеВетер, м/сВероятность осадков
    02:00Ясно и безоблачно+19°C82 %765 мм0.2 м/с5 %
    05:00Ясно и безоблачно+15°C91 %765 мм1.1 м/с5 %
    08:00Ясно и безоблачно+20°C73 %766 мм0.9 м/с5 %
    11:00Ясно и безоблачно+27°C43 %765 мм0.9 м/с5 %
    14:00Ясно и безоблачно+31°C22 %762 мм1.0 м/с5 %
    17:00Ясно и безоблачно+28°C25 %761 мм1.2 м/с5 %
    20:00Ясно и безоблачно+23°C35 %761 мм1.6 м/с5 %
    23:00Ясно и безоблачно+22°C41 %762 мм0.2 м/с5 %
  • 25июля
    Четверг
    +15°
    +33°
    Ясно и безоблачно
    ВремяПогодаТемператураВлажностьДавлениеВетер, м/сВероятность осадков
    02:00Ясно и безоблачно+21°C46 %760 мм0.7 м/с5 %
    05:00Ясно и безоблачно+17°C51 %761 мм0.4 м/с5 %
    08:00Ясно и безоблачно+21°C51 %762 мм1.1 м/с5 %
    11:00Ясно и безоблачно+29°C24 %762 мм1.2 м/с5 %
    14:00Ясно и безоблачно+32°C17 %759 мм1.6 м/с5 %
    17:00Ясно и безоблачно+29°C28 %759 мм1.3 м/с5 %
    20:00Ясно и безоблачно+26°C25 %760 мм1.4 м/с5 %
    23:00Ясно и безоблачно+23°C30 %761 мм0.5 м/с5 %
  • 26июля
    Пятница
    +15°
    +32°
    Ясно и безоблачно
    ВремяПогодаТемператураВлажностьДавлениеВетер, м/сВероятность осадков
    02:00Ясно и безоблачно+19°C43 %760 мм1.3 м/с5 %
    05:00Ясно и безоблачно+16°C56 %761 мм2.9 м/с5 %
    08:00Ясно и безоблачно+19°C56 %763 мм2.7 м/с5 %
    11:00Ясно и безоблачно+27°C36 %763 мм2.5 м/с5 %
    14:00Ясно и безоблачно+31°C24 %760 мм2.1 м/с5 %
    17:00Ясно и безоблачно+29°C34 %760 мм1.6 м/с5 %
    20:00Ясно и безоблачно+24°C44 %761 мм1.7 м/с5 %
    23:00Ясно и безоблачно+21°C58 %762 мм0.8 м/с5 %
  • 27июля
    Суббота
    +16°
    +32°
    Ясно и безоблачно
    ВремяПогодаТемператураВлажностьДавлениеВетер, м/сВероятность осадков
    02:00Ясно и безоблачно+18°C78 %761 мм0.1 м/с5 %
    05:00Ясно и безоблачно+16°C86 %761 мм0.8 м/с5 %
    08:00Ясно и безоблачно+20°C70 %763 мм0.8 м/с5 %
    11:00Ясно и безоблачно+28°C36 %762 мм0.9 м/с5 %
    14:00Ясно и безоблачно+32°C24 %760 мм0.9 м/с5 %
    17:00Ясно и безоблачно+29°C33 %759 мм1.1 м/с5 %
    20:00Ясно и безоблачно+26°C36 %761 мм1.9 м/с5 %
    23:00Ясно и безоблачно+23°C45 %761 мм1.0 м/с5 %
  • 28июля
    Воскресенье
    +15°
    +35°
    Ясно и безоблачно
    ВремяПогодаТемператураВлажностьДавлениеВетер, м/сВероятность осадков
    02:00Ясно и безоблачно+20°C62 %760 мм0.4 м/с5 %
    05:00Ясно и безоблачно+16°C81 %760 мм0.5 м/с5 %
    08:00Ясно и безоблачно+21°C69 %762 мм0.7 м/с5 %
    11:00Ясно и безоблачно+29°C29 %760 мм1.2 м/с5 %
    14:00Ясно и безоблачно+34°C16 %757 мм0.9 м/с5 %
    17:00Ясно и безоблачно+32°C18 %758 мм1.4 м/с5 %
    20:00Ясно и безоблачно+29°C19 %759 мм0.4 м/с5 %
    23:00Ясно и безоблачно+24°C27 %759 мм0.3 м/с5 %
Мы используем cookies
Соглашаюсь